createdAt,value
2019-01-26T00:00:48.878Z,54.17
2019-01-26T00:03:16.396Z,55.40
2019-01-26T00:05:43.773Z,58.30
2019-01-26T00:08:11.211Z,58.13
2019-01-26T00:10:38.625Z,58.77
2019-01-26T00:13:06.057Z,56.73
2019-01-26T00:15:33.490Z,58.00
2019-01-26T00:18:00.940Z,56.50
2019-01-26T00:20:28.467Z,58.23
2019-01-26T00:22:55.883Z,61.33
2019-01-26T00:25:24.348Z,63.60
2019-01-26T00:27:51.683Z,63.53
2019-01-26T00:30:19.106Z,64.07
2019-01-26T00:32:46.620Z,65.23
2019-01-26T00:35:14.107Z,68.27
2019-01-26T00:37:41.553Z,68.63
2019-01-26T00:40:12.181Z,77.33
2019-01-26T00:42:39.582Z,80.43
2019-01-26T00:45:08.316Z,76.13
2019-01-26T00:47:35.918Z,83.60
2019-01-26T00:50:04.733Z,84.90
2019-01-26T00:52:32.052Z,92.40
2019-01-26T00:54:59.490Z,102.13
2019-01-26T00:57:28.460Z,106.90
2019-01-26T00:59:55.803Z,108.97
2019-01-26T01:02:23.276Z,115.20
2019-01-26T01:04:51.063Z,118.53
2019-01-26T01:07:18.428Z,116.77
2019-01-26T01:09:45.943Z,113.60
2019-01-26T01:12:13.557Z,107.27
2019-01-26T01:14:41.074Z,101.37
2019-01-26T01:17:08.527Z,103.03
2019-01-26T01:19:35.858Z,99.03
2019-01-26T01:22:03.191Z,102.23
2019-01-26T01:24:30.731Z,98.10
2019-01-26T01:26:58.071Z,96.87
2019-01-26T01:29:25.471Z,93.70
2019-01-26T01:31:52.950Z,88.43
2019-01-26T01:34:21.365Z,91.40
2019-01-26T01:36:48.695Z,90.33
2019-01-26T01:39:16.062Z,93.57
2019-01-26T01:41:43.539Z,87.83
2019-01-26T01:44:10.905Z,87.40
2019-01-26T01:46:42.881Z,84.20
2019-01-26T01:49:07.338Z,85.83
2019-01-26T01:51:34.765Z,83.87
2019-01-26T01:54:03.263Z,83.27
2019-01-26T01:56:30.522Z,79.07
2019-01-26T01:58:57.923Z,78.20
2019-01-26T02:01:25.396Z,75.37
2019-01-26T02:03:52.819Z,78.27
2019-01-26T02:06:20.644Z,74.17
2019-01-26T02:08:49.205Z,76.17
2019-01-26T02:11:16.530Z,70.67
2019-01-26T02:13:43.936Z,70.60
2019-01-26T02:16:11.635Z,67.63
2019-01-26T02:18:39.125Z,69.10
2019-01-26T02:21:07.033Z,68.27
2019-01-26T02:23:34.432Z,69.17
2019-01-26T02:26:01.994Z,69.77
2019-01-26T02:28:29.507Z,68.10
2019-01-26T02:30:57.103Z,66.87
2019-01-26T02:33:24.466Z,65.27
2019-01-26T02:35:51.884Z,67.30
2019-01-26T02:38:19.240Z,66.47
2019-01-26T02:40:46.665Z,64.77
2019-01-26T02:43:14.255Z,62.77
2019-01-26T02:45:41.705Z,64.33
2019-01-26T02:48:09.073Z,63.23
2019-01-26T02:50:36.583Z,62.03
2019-01-26T02:53:04.070Z,63.83
2019-01-26T02:55:31.543Z,61.97
2019-01-26T02:57:58.955Z,60.80
2019-01-26T03:00:28.157Z,54.77
2019-01-26T03:02:55.539Z,53.47
2019-01-26T03:05:22.869Z,55.60
2019-01-26T03:07:50.329Z,53.40
2019-01-26T03:10:18.700Z,54.50
2019-01-26T03:12:46.165Z,53.73
2019-01-26T03:15:15.273Z,53.00
2019-01-26T03:17:43.179Z,51.73
2019-01-26T03:20:11.426Z,53.03
2019-01-26T03:22:38.882Z,47.60
2019-01-26T03:25:07.315Z,47.50
2019-01-26T03:27:34.716Z,46.63
2019-01-26T03:30:02.248Z,47.33
2019-01-26T03:32:29.933Z,46.70
2019-01-26T03:34:57.378Z,46.80
2019-01-26T03:37:24.950Z,47.20
2019-01-26T03:39:52.462Z,45.37
2019-01-26T03:42:19.869Z,48.00
2019-01-26T03:44:47.252Z,46.93
2019-01-26T03:47:14.570Z,46.27
2019-01-26T03:49:43.082Z,46.90
2019-01-26T03:52:10.551Z,47.13
2019-01-26T03:54:37.967Z,45.57
2019-01-26T03:57:05.327Z,48.47
2019-01-26T03:59:32.730Z,46.73
2019-01-26T04:02:00.080Z,49.57
2019-01-26T04:04:27.432Z,46.77
2019-01-26T04:06:54.911Z,49.23
2019-01-26T04:09:22.417Z,49.57
2019-01-26T04:11:49.914Z,46.17
2019-01-26T04:14:18.902Z,47.27
2019-01-26T04:16:48.642Z,44.23
2019-01-26T04:19:16.054Z,46.73
2019-01-26T04:21:43.604Z,45.73
2019-01-26T04:24:10.955Z,46.67
2019-01-26T04:26:38.438Z,47.03
2019-01-26T04:29:05.970Z,48.93
2019-01-26T04:31:33.326Z,47.90
2019-01-26T04:34:00.692Z,45.20
2019-01-26T04:36:28.497Z,45.90
2019-01-26T04:38:55.893Z,43.50
2019-01-26T04:41:23.351Z,45.73
2019-01-26T04:43:50.739Z,47.73
2019-01-26T04:46:18.078Z,46.70
2019-01-26T04:48:45.572Z,44.73
2019-01-26T04:51:13.026Z,45.63
2019-01-26T04:53:40.433Z,45.20
2019-01-26T04:56:08.084Z,47.27
2019-01-26T04:58:35.481Z,47.17
2019-01-26T05:01:02.933Z,45.30
2019-01-26T05:03:30.373Z,44.60
2019-01-26T05:05:57.769Z,46.13
2019-01-26T05:08:28.078Z,47.13
2019-01-26T05:10:55.487Z,44.70
2019-01-26T05:13:22.913Z,43.87
2019-01-26T05:15:50.258Z,45.23
2019-01-26T05:18:17.710Z,43.10
2019-01-26T05:20:45.115Z,42.20
2019-01-26T05:23:12.447Z,40.97
2019-01-26T05:25:39.771Z,42.73
2019-01-26T05:28:07.145Z,43.40
2019-01-26T05:30:34.551Z,41.03
2019-01-26T05:33:01.974Z,42.90
2019-01-26T05:35:29.509Z,40.30
2019-01-26T05:37:56.916Z,42.30
2019-01-26T05:40:24.301Z,42.30
2019-01-26T05:42:51.688Z,42.33
2019-01-26T05:45:19.994Z,42.57
2019-01-26T05:47:49.311Z,40.17
2019-01-26T05:50:23.482Z,41.27
2019-01-26T05:52:52.464Z,41.33
2019-01-26T05:55:19.983Z,46.47
2019-01-26T05:57:47.357Z,42.90
2019-01-26T06:00:16.421Z,44.30
2019-01-26T06:02:44.238Z,43.23
2019-01-26T06:05:11.842Z,42.30
2019-01-26T06:07:39.297Z,44.20
2019-01-26T06:10:07.361Z,45.27
2019-01-26T06:12:34.864Z,48.27
2019-01-26T06:15:02.423Z,48.00
2019-01-26T06:17:30.193Z,45.40
2019-01-26T06:19:57.632Z,46.40
2019-01-26T06:22:25.146Z,44.67
2019-01-26T06:24:52.500Z,47.37
2019-01-26T06:27:19.954Z,47.50
2019-01-26T06:29:47.316Z,44.27
2019-01-26T06:32:14.673Z,42.40
2019-01-26T06:34:42.148Z,40.77
2019-01-26T06:37:09.528Z,44.77
2019-01-26T06:39:37.156Z,43.97
2019-01-26T06:42:04.742Z,42.17
2019-01-26T06:44:32.158Z,43.70
2019-01-26T06:46:59.562Z,44.90
2019-01-26T06:49:26.994Z,44.73
2019-01-26T06:51:54.328Z,45.67
2019-01-26T06:54:21.670Z,46.03
2019-01-26T06:56:49.176Z,47.17
2019-01-26T06:59:16.784Z,43.70
2019-01-26T07:01:44.256Z,49.57
2019-01-26T07:04:13.316Z,47.97
2019-01-26T07:06:41.068Z,47.63
2019-01-26T07:09:20.632Z,51.27
2019-01-26T07:11:48.088Z,50.30
2019-01-26T07:14:15.495Z,50.20
2019-01-26T07:16:43.007Z,47.80
2019-01-26T07:19:11.526Z,44.43
2019-01-26T07:21:40.872Z,43.07
2019-01-26T07:24:10.942Z,42.30
2019-01-26T07:26:38.924Z,39.37
2019-01-26T07:29:06.271Z,40.27
2019-01-26T07:31:34.190Z,38.57
2019-01-26T07:34:01.761Z,41.37
2019-01-26T07:36:29.179Z,42.07
2019-01-26T07:38:56.758Z,39.80
2019-01-26T07:41:24.438Z,41.13
2019-01-26T07:43:51.845Z,42.20
2019-01-26T07:46:19.958Z,41.90
2019-01-26T07:48:49.174Z,42.90
2019-01-26T07:51:16.600Z,44.47
2019-01-26T07:53:44.120Z,41.90
2019-01-26T07:56:12.067Z,42.73
2019-01-26T07:58:41.134Z,42.03
2019-01-26T08:01:08.551Z,43.93
2019-01-26T08:03:35.968Z,44.03
2019-01-26T08:06:03.933Z,42.93
2019-01-26T08:08:34.356Z,39.33
2019-01-26T08:11:01.535Z,33.93
2019-01-26T08:13:28.972Z,38.90
2019-01-26T08:15:57.580Z,38.67
2019-01-26T08:18:32.691Z,42.83
2019-01-26T08:21:00.716Z,43.63
2019-01-26T08:23:28.104Z,47.87
2019-01-26T08:25:55.703Z,49.23
2019-01-26T08:28:23.370Z,45.17
2019-01-26T08:30:50.752Z,45.33
2019-01-26T08:33:18.211Z,42.53
2019-01-26T08:35:45.662Z,42.13
2019-01-26T08:38:14.795Z,40.60
2019-01-26T08:40:42.352Z,42.50
2019-01-26T08:43:10.337Z,41.33
2019-01-26T08:45:37.778Z,40.47
2019-01-26T08:48:06.432Z,40.03
2019-01-26T08:50:47.732Z,40.13
2019-01-26T08:53:17.932Z,39.97
2019-01-26T08:55:45.426Z,40.07
2019-01-26T08:58:12.874Z,40.50
2019-01-26T09:00:40.454Z,39.40
2019-01-26T09:03:12.413Z,38.93
2019-01-26T09:05:48.207Z,38.60
2019-01-26T09:08:17.366Z,38.27
2019-01-26T09:10:44.758Z,40.20
2019-01-26T09:13:13.816Z,38.63
2019-01-26T09:15:41.311Z,37.80
2019-01-26T09:18:08.794Z,37.60
2019-01-26T09:20:36.306Z,40.13
2019-01-26T09:23:03.932Z,39.23
2019-01-26T09:25:31.413Z,42.00
2019-01-26T09:27:59.076Z,40.67
2019-01-26T09:30:28.149Z,37.60
2019-01-26T09:32:55.653Z,40.67
2019-01-26T09:35:28.748Z,41.67
2019-01-26T09:37:56.283Z,39.93
2019-01-26T09:40:23.773Z,41.90
2019-01-26T09:42:51.298Z,39.37
2019-01-26T09:45:18.943Z,32.73
2019-01-26T09:47:53.923Z,32.73
2019-01-26T09:50:21.495Z,32.73
2019-01-26T09:52:48.918Z,40.77
2019-01-26T09:55:21.313Z,36.40
2019-01-26T09:57:50.169Z,37.13
2019-01-26T10:00:21.563Z,38.77
2019-01-26T10:02:50.161Z,36.57
2019-01-26T10:05:19.726Z,32.90
2019-01-26T10:07:48.839Z,35.07
2019-01-26T10:10:17.711Z,34.63
2019-01-26T10:12:48.029Z,36.87
2019-01-26T10:15:22.674Z,38.57
2019-01-26T10:17:51.959Z,38.40
2019-01-26T10:20:29.815Z,36.70
2019-01-26T10:22:58.623Z,38.17
2019-01-26T10:25:26.142Z,37.10
2019-01-26T10:27:53.624Z,37.27
2019-01-26T10:30:27.177Z,40.13
2019-01-26T10:32:57.483Z,35.47
2019-01-26T10:35:28.180Z,36.90
2019-01-26T10:37:57.120Z,38.40
2019-01-26T10:40:36.098Z,40.37
2019-01-26T10:43:07.219Z,41.17
2019-01-26T10:45:40.856Z,39.23
2019-01-26T10:48:16.033Z,37.73
2019-01-26T10:50:46.235Z,39.40
2019-01-26T10:53:19.599Z,39.13
2019-01-26T10:55:54.931Z,40.23
2019-01-26T10:58:24.541Z,39.77
2019-01-26T11:00:56.096Z,41.87
2019-01-26T11:03:24.674Z,42.80
2019-01-26T11:05:53.251Z,42.40
2019-01-26T11:08:20.767Z,44.70
2019-01-26T11:10:48.323Z,48.77
2019-01-26T11:13:17.161Z,47.87
2019-01-26T11:15:44.637Z,45.03
2019-01-26T11:18:14.675Z,44.47
2019-01-26T11:23:32.781Z,40.47
2019-01-26T11:26:05.120Z,36.40
2019-01-26T11:28:34.169Z,35.17
2019-01-26T11:31:02.223Z,34.90
2019-01-26T11:33:32.442Z,34.13
2019-01-26T11:35:59.896Z,33.40
2019-01-26T11:38:27.432Z,31.17
2019-01-26T11:40:54.966Z,31.00
2019-01-26T11:43:22.832Z,29.90
2019-01-26T11:45:52.020Z,27.93
2019-01-26T11:48:26.159Z,30.23
2019-01-26T11:51:02.700Z,28.90
2019-01-26T11:53:31.655Z,29.23
2019-01-26T11:56:23.699Z,28.93
2019-01-26T11:58:53.716Z,32.30
2019-01-26T12:01:31.556Z,32.80
2019-01-26T12:04:02.894Z,32.17
2019-01-26T12:06:34.016Z,29.97
2019-01-26T12:09:04.718Z,30.23
2019-01-26T12:11:32.918Z,30.13
2019-01-26T12:14:04.223Z,33.27
2019-01-26T12:16:35.566Z,33.13
2019-01-26T12:19:12.484Z,34.53
2019-01-26T12:21:43.701Z,31.17
2019-01-26T12:24:14.372Z,30.37
2019-01-26T12:26:45.600Z,30.27
2019-01-26T12:29:20.176Z,31.17
2019-01-26T12:31:51.294Z,29.63
2019-01-26T12:34:19.486Z,31.17
2019-01-26T12:36:47.003Z,29.10
2019-01-26T12:39:20.056Z,30.87
2019-01-26T12:41:53.196Z,29.50
2019-01-26T12:44:28.967Z,30.37
2019-01-26T12:46:58.226Z,30.73
2019-01-26T12:49:29.588Z,31.83
2019-01-26T12:51:59.644Z,33.30
2019-01-26T12:54:29.742Z,34.13
2019-01-26T12:57:01.960Z,33.53
2019-01-26T12:59:26.788Z,34.77
2019-01-26T13:01:54.842Z,34.10
2019-01-26T13:04:24.261Z,33.83
2019-01-26T13:06:51.780Z,33.53
2019-01-26T13:09:23.486Z,31.63
2019-01-26T13:11:52.535Z,32.43
2019-01-26T13:14:20.610Z,31.43
2019-01-26T13:16:48.163Z,34.20
2019-01-26T13:19:18.333Z,32.00
2019-01-26T13:24:35.176Z,31.33
2019-01-26T13:27:04.540Z,34.00
2019-01-26T13:32:33.063Z,33.07
2019-01-26T13:35:12.579Z,33.87
2019-01-26T13:37:40.265Z,34.40
2019-01-26T13:46:09.982Z,31.63
2019-01-26T13:48:41.294Z,30.03
2019-01-26T13:51:13.265Z,33.90
2019-01-26T13:53:42.637Z,32.87
2019-01-26T14:12:59.439Z,33.90
2019-01-26T14:15:48.872Z,36.13
2019-01-26T14:18:17.538Z,34.23
2019-01-26T14:20:47.088Z,36.17
2019-01-26T14:23:17.329Z,35.47
2019-01-26T14:25:50.067Z,36.17
2019-01-26T14:28:18.265Z,37.33
2019-01-26T14:30:50.603Z,36.07
2019-01-26T14:33:18.807Z,35.40
2019-01-26T14:35:48.021Z,34.33
2019-01-26T14:38:18.579Z,33.63
2019-01-26T14:40:46.361Z,33.37
2019-01-26T14:43:22.569Z,34.13
2019-01-26T14:45:51.191Z,36.97
2019-01-26T14:48:23.807Z,35.10
2019-01-26T14:50:53.035Z,35.33
2019-01-26T14:53:21.802Z,36.83
2019-01-26T14:55:51.101Z,36.20
2019-01-26T14:58:18.662Z,35.67
2019-01-26T15:00:46.493Z,36.23
2019-01-26T15:03:14.211Z,37.20
2019-01-26T15:05:41.657Z,38.83
2019-01-26T15:08:10.302Z,39.27
2019-01-26T15:10:43.447Z,40.70
2019-01-26T15:13:11.872Z,41.73
2019-01-26T15:15:43.690Z,40.80
2019-01-26T15:18:12.615Z,40.80
2019-01-26T15:20:46.516Z,39.93
2019-01-26T15:23:33.673Z,40.60
2019-01-26T15:31:47.467Z,37.13
2019-01-26T15:34:14.963Z,39.00
2019-01-26T15:36:44.023Z,36.30
2019-01-26T15:39:13.115Z,38.93
2019-01-26T15:41:51.695Z,39.87
2019-01-26T15:44:19.115Z,37.87
2019-01-26T15:46:46.532Z,37.97
2019-01-26T15:49:13.968Z,38.37
2019-01-26T15:51:42.090Z,37.57
2019-01-26T15:54:09.553Z,37.13
2019-01-26T15:56:38.166Z,41.93
2019-01-26T15:59:07.985Z,39.97
2019-01-26T16:01:36.704Z,39.30
2019-01-26T16:04:04.155Z,36.53
2019-01-26T16:06:33.656Z,38.23
2019-01-26T16:09:01.157Z,39.73
2019-01-26T16:11:28.910Z,36.57
2019-01-26T16:13:56.393Z,38.50
2019-01-26T16:16:23.952Z,38.63
2019-01-26T16:18:54.229Z,38.03
2019-01-26T16:21:22.820Z,38.03
2019-01-26T16:23:50.316Z,38.27
2019-01-26T16:26:19.120Z,37.07
2019-01-26T16:28:46.583Z,38.57
2019-01-26T16:31:14.080Z,37.00
2019-01-26T16:33:41.462Z,37.80
2019-01-26T16:36:08.968Z,40.83
2019-01-26T16:38:40.482Z,39.53
2019-01-26T16:41:08.034Z,38.60
2019-01-26T16:43:35.490Z,40.43
2019-01-26T16:46:03.914Z,41.77
2019-01-26T16:48:31.322Z,41.50
2019-01-26T16:50:58.861Z,42.97
2019-01-26T16:53:26.271Z,41.93
2019-01-26T16:55:54.649Z,42.77
2019-01-26T16:58:31.387Z,42.43
2019-01-26T17:00:58.848Z,43.13
2019-01-26T17:03:26.263Z,42.60
2019-01-26T17:05:55.301Z,43.60
2019-01-26T17:08:22.656Z,44.40
2019-01-26T17:10:50.221Z,45.03
2019-01-26T17:13:17.817Z,43.97
2019-01-26T17:15:45.202Z,47.23
2019-01-26T17:18:13.916Z,48.10
2019-01-26T17:20:42.113Z,45.77
2019-01-26T17:23:09.447Z,46.73
2019-01-26T17:25:38.139Z,45.53
2019-01-26T17:28:05.572Z,46.30
2019-01-26T17:30:34.677Z,47.23
2019-01-26T17:33:07.413Z,44.80
2019-01-26T17:35:32.136Z,45.03
2019-01-26T17:37:59.799Z,45.03
2019-01-26T17:40:27.261Z,48.90
2019-01-26T17:42:54.883Z,49.87
2019-01-26T17:45:22.334Z,47.83
2019-01-26T17:47:53.506Z,46.17
2019-01-26T17:50:21.779Z,46.43
2019-01-26T17:52:50.357Z,46.30
2019-01-26T17:55:17.773Z,42.10
2019-01-26T17:57:45.317Z,43.90
2019-01-26T18:00:17.672Z,54.67
2019-01-26T18:02:45.018Z,49.97
2019-01-26T18:05:12.563Z,46.10
2019-01-26T18:07:39.969Z,43.77
2019-01-26T18:10:12.403Z,44.17
2019-01-26T18:12:40.060Z,45.73
2019-01-26T18:15:11.990Z,44.93
2019-01-26T18:17:39.876Z,44.67
2019-01-26T18:20:08.978Z,45.47
2019-01-26T18:22:36.464Z,44.50
2019-01-26T18:25:05.280Z,44.30
2019-01-26T18:27:32.700Z,46.10
2019-01-26T18:30:00.229Z,47.37
2019-01-26T18:32:27.684Z,49.20
2019-01-26T18:34:55.258Z,48.67
2019-01-26T18:37:22.819Z,50.20
2019-01-26T18:39:50.355Z,52.97
2019-01-26T18:42:17.808Z,48.67
2019-01-26T18:44:46.047Z,52.07
2019-01-26T18:47:13.543Z,52.70
2019-01-26T18:49:42.198Z,53.07
2019-01-26T18:52:10.748Z,55.13
2019-01-26T18:54:38.822Z,50.40
2019-01-26T18:57:06.660Z,50.77
2019-01-26T18:59:35.674Z,50.70
2019-01-26T19:02:03.220Z,52.93
2019-01-26T19:04:31.086Z,49.07
2019-01-26T19:06:58.586Z,49.30
2019-01-26T19:09:26.082Z,46.73
2019-01-26T19:11:53.541Z,46.03
2019-01-26T19:14:21.076Z,49.87
2019-01-26T19:17:08.126Z,47.63
2019-01-26T19:19:35.580Z,45.97
2019-01-26T19:22:03.233Z,47.47
2019-01-26T19:24:30.775Z,48.83
2019-01-26T19:27:06.518Z,51.50
2019-01-26T19:29:34.003Z,51.20
2019-01-26T19:32:05.899Z,51.57
2019-01-26T19:34:31.425Z,51.47
2019-01-26T19:36:59.124Z,51.33
2019-01-26T19:39:26.716Z,52.37
2019-01-26T19:41:54.218Z,55.50
2019-01-26T19:44:22.239Z,51.90
2019-01-26T19:46:49.750Z,48.13
2019-01-26T19:49:17.238Z,50.00
2019-01-26T19:51:44.790Z,48.17
2019-01-26T19:54:12.302Z,48.47
2019-01-26T19:56:39.715Z,50.47
2019-01-26T19:59:07.347Z,48.03
2019-01-26T20:01:35.961Z,51.57
2019-01-26T20:04:04.074Z,50.93
2019-01-26T20:06:31.736Z,52.77
2019-01-26T20:08:59.249Z,54.50
2019-01-26T20:11:26.720Z,56.20
2019-01-26T20:13:54.343Z,57.53
2019-01-26T20:16:21.692Z,56.97
2019-01-26T20:18:49.242Z,55.43
2019-01-26T20:21:17.683Z,56.67
2019-01-26T20:23:46.606Z,55.90
2019-01-26T20:26:14.079Z,55.83
2019-01-26T20:28:41.778Z,56.53
2019-01-26T20:31:10.981Z,55.00
2019-01-26T20:33:38.332Z,52.10
2019-01-26T20:36:06.496Z,51.90
2019-01-26T20:38:35.573Z,51.80
2019-01-26T20:41:03.069Z,52.60
2019-01-26T20:43:30.626Z,53.03
2019-01-26T20:45:59.599Z,51.27
2019-01-26T20:48:27.063Z,49.57
2019-01-26T20:50:54.651Z,51.33
2019-01-26T20:53:22.176Z,47.07
2019-01-26T20:55:49.901Z,49.90
2019-01-26T20:58:20.207Z,53.83
2019-01-26T21:00:48.031Z,49.57
2019-01-26T21:03:15.337Z,48.07
2019-01-26T21:05:42.845Z,52.77
2019-01-26T21:08:11.340Z,50.03
2019-01-26T21:10:40.851Z,47.63
2019-01-26T21:13:08.404Z,49.03
2019-01-26T21:15:36.574Z,46.93
2019-01-26T21:18:04.976Z,48.90
2019-01-26T21:20:32.465Z,45.17
2019-01-26T21:23:00.114Z,46.67
2019-01-26T21:25:27.575Z,47.37
2019-01-26T21:27:55.059Z,43.53
2019-01-26T21:30:23.878Z,46.90
2019-01-26T21:32:51.225Z,46.23
2019-01-26T21:35:18.756Z,46.37
2019-01-26T21:37:46.245Z,50.03
2019-01-26T21:40:24.095Z,45.63
2019-01-26T21:42:51.570Z,48.27
2019-01-26T21:45:19.033Z,54.40
2019-01-26T21:47:46.402Z,64.13
2019-01-26T21:50:15.088Z,68.93
2019-01-26T21:52:42.508Z,69.87
2019-01-26T21:55:11.959Z,68.90
2019-01-26T21:57:39.361Z,69.27
2019-01-26T22:00:08.353Z,68.53
2019-01-26T22:02:36.337Z,65.23
2019-01-26T22:05:04.714Z,66.13
2019-01-26T22:07:32.164Z,64.97
2019-01-26T22:09:59.752Z,63.67
2019-01-26T22:12:27.214Z,66.50
2019-01-26T22:14:54.778Z,63.63
2019-01-26T22:17:22.262Z,61.13
2019-01-26T22:19:49.717Z,61.67
2019-01-26T22:22:17.236Z,62.10
2019-01-26T22:24:44.761Z,59.03
2019-01-26T22:27:12.203Z,59.50
2019-01-26T22:29:39.708Z,59.03
2019-01-26T22:32:07.278Z,58.27
2019-01-26T22:34:34.716Z,58.30
2019-01-26T22:37:02.197Z,59.57
2019-01-26T22:39:29.681Z,57.27
2019-01-26T22:41:57.196Z,57.97
2019-01-26T22:44:25.003Z,55.00
2019-01-26T22:46:52.500Z,56.47
2019-01-26T22:49:20.078Z,56.07
2019-01-26T22:51:53.244Z,58.93
2019-01-26T22:54:16.607Z,55.50
2019-01-26T22:56:44.039Z,57.53
2019-01-26T22:59:11.500Z,57.17
2019-01-26T23:01:38.968Z,57.47
2019-01-26T23:04:08.074Z,56.97
2019-01-26T23:06:37.160Z,59.00
2019-01-26T23:09:12.200Z,56.73
2019-01-26T23:11:50.055Z,55.07
2019-01-26T23:14:21.906Z,58.50
2019-01-26T23:17:03.074Z,57.37
2019-01-26T23:19:32.160Z,59.47
2019-01-26T23:22:06.892Z,62.17
2019-01-26T23:24:48.030Z,72.53
2019-01-26T23:27:26.060Z,65.73
2019-01-26T23:29:55.252Z,62.13
2019-01-26T23:32:22.754Z,59.67
2019-01-26T23:34:50.150Z,60.57
2019-01-26T23:37:17.558Z,63.20
2019-01-26T23:39:44.914Z,60.43
2019-01-26T23:42:12.314Z,60.27
2019-01-26T23:44:39.793Z,55.60
2019-01-26T23:47:07.274Z,52.70
2019-01-26T23:49:34.636Z,48.00
2019-01-26T23:52:02.172Z,45.10
2019-01-26T23:54:29.504Z,40.80
2019-01-26T23:56:56.964Z,39.77
2019-01-26T23:59:24.524Z,40.33
